Time;durP1;ratioP1;P1;durP2;ratioP2;P2;SDS_P1;SDS_P2;PMS_P1;PMS_P2;Temp;Humidity;BMP_temperature;BMP_pressure;BME280_temperature;BME280_humidity;BME280_pressure;Samples;Min_cycle;Max_cycle;Signal;HPM_P1;HPM_P2
2023/03/09 00:02:10;;;;;;;11.48;8.10;;;1.50;99.90;;;;;;4960157;28;20039;-36
2023/03/09 00:04:36;;;;;;;13.63;8.73;;;1.50;99.90;;;;;;4966536;28;20035;-35
2023/03/09 00:07:02;;;;;;;11.77;8.10;;;1.50;99.90;;;;;;4952470;28;20093;-35
2023/03/09 00:09:27;;;;;;;11.07;7.63;;;1.50;99.90;;;;;;4959280;28;20495;-35
2023/03/09 00:11:53;;;;;;;13.07;8.57;;;1.50;99.90;;;;;;4963977;28;20036;-36
2023/03/09 00:14:24;;;;;;;12.77;8.38;;;1.50;99.90;;;;;;4937464;28;20039;-35
2023/03/09 00:16:50;;;;;;;12.57;8.45;;;1.50;99.90;;;;;;4961977;28;20035;-35
2023/03/09 00:19:20;;;;;;;11.57;7.78;;;1.50;99.90;;;;;;4964181;28;20046;-36
2023/03/09 00:21:51;;;;;;;15.05;8.38;;;1.50;99.90;;;;;;4958818;28;20113;-35
2023/03/09 00:24:19;;;;;;;13.30;8.85;;;1.50;99.90;;;;;;4962595;28;20039;-35
2023/03/09 00:26:59;;;;;;;13.15;8.73;;;1.50;99.90;;;;;;4967967;28;20070;-35
2023/03/09 00:29:27;;;;;;;14.88;8.68;;;1.50;99.90;;;;;;4964938;28;20046;-36
2023/03/09 00:31:53;;;;;;;18.45;9.90;;;1.50;99.90;;;;;;4967519;28;20110;-36
2023/03/09 00:34:20;;;;;;;16.15;10.27;;;1.40;99.90;;;;;;4963935;28;20067;-36
2023/03/09 00:36:45;;;;;;;17.35;10.93;;;1.40;99.90;;;;;;4965235;28;20396;-36
2023/03/09 00:39:14;;;;;;;15.90;9.90;;;1.40;99.90;;;;;;4963118;28;20039;-35
2023/03/09 00:41:40;;;;;;;15.48;9.90;;;1.30;99.90;;;;;;4968740;28;20123;-36
2023/03/09 00:44:06;;;;;;;17.73;10.70;;;1.30;99.90;;;;;;4962116;28;20393;-36
2023/03/09 00:46:33;;;;;;;18.13;10.75;;;1.30;99.90;;;;;;4965043;28;20122;-35
2023/03/09 00:48:59;;;;;;;15.90;9.70;;;1.40;99.90;;;;;;4951190;28;20039;-35
2023/03/09 00:51:25;;;;;;;16.48;10.43;;;1.30;99.90;;;;;;4964315;28;20057;-35
2023/03/09 00:53:52;;;;;;;15.48;10.27;;;1.30;99.90;;;;;;4966845;28;20035;-35
2023/03/09 00:56:20;;;;;;;15.90;10.27;;;1.30;99.90;;;;;;4956216;28;20492;-35
2023/03/09 00:58:46;;;;;;;17.33;10.07;;;1.30;99.90;;;;;;4961449;28;20050;-35
2023/03/09 01:01:15;;;;;;;17.25;10.82;;;1.30;99.90;;;;;;4966065;28;20523;-35
2023/03/09 01:03:40;;;;;;;18.48;10.63;;;1.30;99.90;;;;;;4962534;28;20035;-35
2023/03/09 01:06:07;;;;;;;15.02;9.57;;;1.30;99.90;;;;;;4973148;28;20093;-35
2023/03/09 01:08:33;;;;;;;15.98;10.00;;;1.30;99.90;;;;;;4965500;28;20049;-35
2023/03/09 01:10:59;;;;;;;17.73;10.80;;;1.30;99.90;;;;;;4957956;28;20043;-35
2023/03/09 01:13:25;;;;;;;17.30;10.43;;;1.20;99.90;;;;;;4972616;28;20492;-36
2023/03/09 01:15:50;;;;;;;17.30;10.60;;;1.30;99.90;;;;;;4965523;28;20050;-36
2023/03/09 01:18:16;;;;;;;17.13;10.38;;;1.20;99.90;;;;;;4973132;28;20042;-36
2023/03/09 01:20:42;;;;;;;17.48;10.63;;;1.20;99.90;;;;;;4968200;28;20074;-36
2023/03/09 01:23:07;;;;;;;14.98;9.25;;;1.20;99.90;;;;;;4964776;28;20128;-36
2023/03/09 01:25:34;;;;;;;16.30;9.52;;;1.20;99.90;;;;;;4973678;28;20142;-35
2023/03/09 01:27:59;;;;;;;16.38;10.18;;;1.20;99.90;;;;;;4955708;28;20047;-36
2023/03/09 01:30:25;;;;;;;14.07;9.68;;;1.20;99.90;;;;;;4970098;28;20039;-36
2023/03/09 01:32:50;;;;;;;15.93;10.15;;;1.10;99.90;;;;;;4970198;28;20369;-35
2023/03/09 01:35:16;;;;;;;16.60;10.23;;;1.10;99.90;;;;;;4972969;28;20315;-35
2023/03/09 01:37:42;;;;;;;15.80;10.13;;;1.10;99.90;;;;;;4964973;28;20057;-35
2023/03/09 01:40:15;;;;;;;17.80;10.98;;;1.10;99.90;;;;;;4963093;28;20037;-35
2023/03/09 01:42:40;;;;;;;16.52;9.90;;;1.10;99.90;;;;;;4961431;28;20039;-35
2023/03/09 01:45:29;;;;;;;15.63;9.70;;;1.10;99.90;;;;;;4972187;28;20440;-35
2023/03/09 01:47:57;;;;;;;16.95;9.90;;;1.10;99.90;;;;;;4963889;28;20090;-35
2023/03/09 01:50:34;;;;;;;15.65;8.95;;;1.10;99.90;;;;;;4955596;28;20085;-36
2023/03/09 01:53:10;;;;;;;16.50;10.48;;;1.00;99.90;;;;;;4965421;28;20049;-36
2023/03/09 01:55:41;;;;;;;16.17;10.18;;;1.10;99.90;;;;;;4969614;28;20031;-35
2023/03/09 01:58:25;;;;;;;17.70;10.32;;;1.00;99.90;;;;;;4970834;28;20038;-35
2023/03/09 02:00:54;;;;;;;15.55;9.93;;;1.00;99.90;;;;;;4962961;28;20039;-35
2023/03/09 02:03:36;;;;;;;17.20;10.57;;;1.00;99.90;;;;;;4956987;28;20094;-35
2023/03/09 02:06:12;;;;;;;15.32;9.57;;;1.00;99.90;;;;;;4963575;28;20074;-35
2023/03/09 02:08:44;;;;;;;14.48;9.88;;;1.00;99.90;;;;;;4963263;28;20837;-35
2023/03/09 02:11:13;;;;;;;14.90;9.38;;;1.00;99.90;;;;;;4967281;28;20522;-35
2023/03/09 02:13:41;;;;;;;16.95;10.02;;;1.00;99.90;;;;;;4966644;28;20474;-35
2023/03/09 02:16:07;;;;;;;16.65;9.07;;;0.90;99.90;;;;;;4963422;28;20031;-36
2023/03/09 02:18:33;;;;;;;14.82;9.60;;;0.90;99.90;;;;;;4965779;28;20410;-36
2023/03/09 02:21:17;;;;;;;14.70;8.93;;;0.90;99.90;;;;;;4965415;28;20047;-35
2023/03/09 02:23:54;;;;;;;18.23;10.25;;;0.90;99.90;;;;;;4961236;28;20456;-35
2023/03/09 02:26:33;;;;;;;16.58;10.00;;;0.90;99.90;;;;;;4969381;28;20045;-35
2023/03/09 02:28:59;;;;;;;17.50;10.63;;;0.90;99.90;;;;;;4957011;28;20039;-35
2023/03/09 02:31:26;;;;;;;17.17;10.10;;;0.90;99.90;;;;;;4970276;28;20039;-35
2023/03/09 02:33:51;;;;;;;18.25;10.18;;;0.90;99.90;;;;;;4949722;28;20047;-35
2023/03/09 02:36:17;;;;;;;16.80;10.02;;;0.90;99.90;;;;;;4959299;28;20035;-35
2023/03/09 02:38:43;;;;;;;15.52;10.25;;;0.90;99.90;;;;;;4965089;28;20043;-36
2023/03/09 02:41:12;;;;;;;13.73;9.25;;;0.90;99.90;;;;;;4965501;28;20038;-36
2023/03/09 02:43:49;;;;;;;16.85;10.48;;;0.90;99.90;;;;;;4954124;28;20038;-35
2023/03/09 02:46:15;;;;;;;16.27;10.25;;;0.90;99.90;;;;;;4967776;28;20041;-36
2023/03/09 02:48:40;;;;;;;16.50;10.48;;;0.90;99.90;;;;;;4959513;28;20043;-36
2023/03/09 02:51:06;;;;;;;14.18;9.57;;;0.90;99.90;;;;;;4963365;28;20042;-36
2023/03/09 02:53:32;;;;;;;16.88;9.82;;;0.90;99.90;;;;;;4959969;28;20105;-36
2023/03/09 02:55:58;;;;;;;16.17;9.82;;;0.90;99.90;;;;;;4964038;28;20625;-35
2023/03/09 02:58:23;;;;;;;16.52;11.00;;;0.90;99.90;;;;;;4950386;28;20143;-35
2023/03/09 03:00:49;;;;;;;18.05;10.60;;;0.90;99.90;;;;;;4963758;28;20066;-35
2023/03/09 03:03:18;;;;;;;18.00;10.88;;;0.90;99.90;;;;;;4958569;28;20035;-35
2023/03/09 03:05:44;;;;;;;17.13;10.57;;;0.90;99.90;;;;;;4970767;28;20146;-35
2023/03/09 03:08:09;;;;;;;16.95;11.23;;;0.90;99.90;;;;;;4961462;28;20558;-35
2023/03/09 03:10:35;;;;;;;16.65;10.75;;;0.90;99.90;;;;;;4967276;28;20033;-36
2023/03/09 03:13:01;;;;;;;15.35;9.45;;;0.90;99.90;;;;;;4970457;28;20488;-36
2023/03/09 03:15:26;;;;;;;16.00;10.70;;;0.90;99.90;;;;;;4957389;28;20042;-35
2023/03/09 03:17:52;;;;;;;17.20;10.98;;;0.90;99.90;;;;;;4990587;23;20042;-35
2023/03/09 03:20:18;;;;;;;17.35;10.57;;;0.90;99.90;;;;;;4976890;28;20041;-35
2023/03/09 03:22:43;;;;;;;18.83;11.38;;;0.90;99.90;;;;;;5012886;28;20041;-34
2023/03/09 03:25:11;;;;;;;18.55;10.45;;;0.90;99.90;;;;;;5010730;28;20033;-34
2023/03/09 03:27:36;;;;;;;16.48;10.55;;;0.90;99.90;;;;;;5009616;28;20509;-34
2023/03/09 03:30:03;;;;;;;17.77;10.55;;;1.00;99.90;;;;;;5009671;28;20069;-34
2023/03/09 03:32:29;;;;;;;17.60;10.90;;;0.90;99.90;;;;;;5009758;28;20057;-35
2023/03/09 03:34:55;;;;;;;17.90;11.32;;;0.90;99.90;;;;;;5002501;28;20046;-35
2023/03/09 03:37:20;;;;;;;18.48;11.88;;;1.00;99.90;;;;;;5008136;28;20044;-34
2023/03/09 03:39:46;;;;;;;18.25;11.18;;;0.90;99.90;;;;;;5009378;28;20092;-34
2023/03/09 03:42:12;;;;;;;17.85;11.45;;;0.90;99.90;;;;;;4998971;28;20076;-34
2023/03/09 03:44:37;;;;;;;18.77;11.35;;;1.00;99.90;;;;;;5007804;28;20088;-34
2023/03/09 03:47:03;;;;;;;18.73;11.88;;;0.90;99.90;;;;;;5007523;28;20387;-35
2023/03/09 03:49:29;;;;;;;19.52;12.52;;;1.00;99.90;;;;;;5009832;28;20037;-34
2023/03/09 03:51:54;;;;;;;19.50;11.77;;;0.90;99.90;;;;;;5011150;28;20046;-34
2023/03/09 03:54:20;;;;;;;22.35;12.25;;;0.90;99.90;;;;;;5011746;28;20040;-34
2023/03/09 03:56:45;;;;;;;19.33;12.18;;;0.90;99.90;;;;;;5010992;28;20133;-34
2023/03/09 03:59:11;;;;;;;20.20;12.65;;;1.00;99.90;;;;;;5009949;28;20045;-35
2023/03/09 04:01:37;;;;;;;20.52;13.15;;;1.00;99.90;;;;;;5009492;28;20143;-34
2023/03/09 04:04:03;;;;;;;20.80;12.40;;;0.90;99.90;;;;;;4996778;28;20069;-35
2023/03/09 04:06:28;;;;;;;20.52;12.02;;;0.90;99.90;;;;;;4979323;28;20065;-34
2023/03/09 04:08:54;;;;;;;19.75;12.10;;;1.00;99.90;;;;;;5005181;28;20112;-35
2023/03/09 04:11:20;;;;;;;23.00;12.57;;;0.90;99.90;;;;;;5009735;28;20030;-34
2023/03/09 04:13:50;;;;;;;19.77;11.98;;;1.00;99.90;;;;;;5010825;28;20073;-35
2023/03/09 04:16:15;;;;;;;19.30;11.50;;;1.00;99.90;;;;;;4995679;28;20288;-35
2023/03/09 04:18:41;;;;;;;21.45;12.00;;;1.00;99.90;;;;;;5012950;28;20168;-34
2023/03/09 04:21:06;;;;;;;20.00;12.27;;;1.00;99.90;;;;;;5012910;28;20080;-35
2023/03/09 04:23:32;;;;;;;17.20;11.68;;;1.00;99.90;;;;;;5006264;28;20518;-34
2023/03/09 04:26:00;;;;;;;19.70;12.57;;;1.00;99.90;;;;;;5009104;28;20037;-35
2023/03/09 04:28:26;;;;;;;20.98;11.82;;;1.00;99.90;;;;;;5012417;28;20125;-35
2023/03/09 04:30:52;;;;;;;19.85;12.15;;;1.00;99.90;;;;;;4997337;28;20097;-35
2023/03/09 04:33:18;;;;;;;21.48;12.35;;;1.00;99.90;;;;;;4999141;28;20483;-35
2023/03/09 04:35:44;;;;;;;19.58;12.57;;;1.00;99.90;;;;;;5011098;28;20022;-34
2023/03/09 04:38:10;;;;;;;21.25;12.13;;;1.00;99.90;;;;;;5009130;28;20190;-34
2023/03/09 04:40:36;;;;;;;21.50;13.23;;;1.00;99.90;;;;;;5012379;28;20121;-34
2023/03/09 04:43:02;;;;;;;19.08;12.25;;;1.00;99.90;;;;;;5010070;28;20038;-34
2023/03/09 04:45:29;;;;;;;20.55;12.63;;;1.00;99.90;;;;;;5012830;28;20042;-35
2023/03/09 04:47:55;;;;;;;20.17;11.93;;;1.00;99.90;;;;;;5012610;28;20072;-35
2023/03/09 04:50:20;;;;;;;25.73;12.48;;;1.00;99.90;;;;;;5010607;28;20065;-35
2023/03/09 04:52:46;;;;;;;20.60;12.07;;;1.00;99.90;;;;;;5008582;28;20034;-35
2023/03/09 04:55:12;;;;;;;18.98;11.65;;;1.00;99.90;;;;;;5011151;28;20580;-35
2023/03/09 04:57:37;;;;;;;21.55;12.15;;;1.00;99.90;;;;;;4975493;28;20045;-34
2023/03/09 05:00:08;;;;;;;20.38;12.27;;;1.00;99.90;;;;;;5007999;28;20121;-35
2023/03/09 05:02:34;;;;;;;20.75;12.30;;;1.00;99.90;;;;;;5004082;28;20045;-35
2023/03/09 05:05:00;;;;;;;21.85;12.65;;;1.00;99.90;;;;;;5009053;28;20034;-35
2023/03/09 05:07:25;;;;;;;22.40;12.82;;;0.90;99.90;;;;;;5004563;28;20081;-35
2023/03/09 05:09:51;;;;;;;19.92;11.88;;;0.90;99.90;;;;;;5011915;28;20046;-35
2023/03/09 05:12:17;;;;;;;21.98;12.65;;;0.90;99.90;;;;;;4992090;28;20420;-34
2023/03/09 05:14:42;;;;;;;21.58;12.52;;;0.90;99.90;;;;;;5012349;28;20066;-35
2023/03/09 05:17:08;;;;;;;21.27;12.73;;;0.90;99.90;;;;;;5004261;28;20383;-34
2023/03/09 05:19:36;;;;;;;20.58;11.88;;;0.90;99.90;;;;;;5009469;28;20490;-35
2023/03/09 05:22:03;;;;;;;19.23;12.10;;;0.80;99.90;;;;;;5011192;28;20065;-35
2023/03/09 05:24:28;;;;;;;19.70;11.55;;;0.80;99.90;;;;;;5011240;28;20026;-35
2023/03/09 05:26:54;;;;;;;18.35;11.68;;;0.80;99.90;;;;;;4997370;28;20033;-35
2023/03/09 05:29:20;;;;;;;21.42;11.90;;;0.80;99.90;;;;;;5007807;28;20030;-35
2023/03/09 05:31:46;;;;;;;22.60;12.60;;;0.80;99.90;;;;;;5007538;28;20042;-35
2023/03/09 05:34:11;;;;;;;23.05;13.02;;;0.80;99.90;;;;;;4995376;28;20064;-34
2023/03/09 05:36:37;;;;;;;22.33;13.23;;;0.80;99.90;;;;;;5010459;28;20034;-35
2023/03/09 05:39:03;;;;;;;22.63;13.07;;;0.80;99.90;;;;;;5003219;28;20042;-35
2023/03/09 05:41:28;;;;;;;20.35;12.73;;;0.90;99.90;;;;;;5006594;28;20040;-35
2023/03/09 05:43:54;;;;;;;20.52;12.13;;;0.90;99.90;;;;;;5008733;28;20050;-35
2023/03/09 05:46:20;;;;;;;21.27;12.82;;;0.90;99.90;;;;;;5007042;28;20409;-35
2023/03/09 05:48:47;;;;;;;20.98;12.55;;;0.90;99.90;;;;;;5006120;28;20371;-36
2023/03/09 05:51:13;;;;;;;22.33;13.02;;;0.90;99.90;;;;;;5005552;28;20121;-35
2023/03/09 05:53:39;;;;;;;24.45;13.52;;;0.90;99.90;;;;;;5004659;28;20122;-35
2023/03/09 05:56:06;;;;;;;25.65;13.75;;;0.90;99.90;;;;;;4993729;28;20041;-35
2023/03/09 05:58:32;;;;;;;24.70;13.27;;;0.90;99.90;;;;;;5000264;28;20096;-35
2023/03/09 06:00:58;;;;;;;20.92;12.63;;;0.90;99.90;;;;;;5006010;28;20084;-35
2023/03/09 06:03:25;;;;;;;24.42;13.65;;;0.90;99.90;;;;;;5007452;28;20473;-35
2023/03/09 06:06:01;;;;;;;26.52;14.27;;;0.90;99.90;;;;;;5008687;28;20403;-34
2023/03/09 06:08:27;;;;;;;24.20;14.30;;;0.90;99.90;;;;;;5007311;28;20034;-35
2023/03/09 06:10:53;;;;;;;25.88;15.05;;;1.00;99.90;;;;;;5007917;28;20065;-34
2023/03/09 06:13:20;;;;;;;28.23;15.05;;;0.90;99.90;;;;;;5007241;28;20149;-34
2023/03/09 06:15:46;;;;;;;25.73;14.35;;;1.00;99.90;;;;;;5007796;28;20109;-35
2023/03/09 06:18:12;;;;;;;28.67;15.23;;;1.00;99.90;;;;;;4993868;28;20034;-35
2023/03/09 06:20:37;;;;;;;25.80;14.73;;;1.00;99.90;;;;;;5006513;28;20033;-35
2023/03/09 06:23:03;;;;;;;27.27;15.75;;;1.00;99.90;;;;;;5007492;28;20131;-35
2023/03/09 06:25:32;;;;;;;26.48;16.23;;;1.00;99.90;;;;;;4992344;28;20038;-35
2023/03/09 06:27:57;;;;;;;25.98;14.55;;;1.00;99.90;;;;;;5008317;28;20034;-35
2023/03/09 06:30:23;;;;;;;27.33;15.05;;;1.10;99.90;;;;;;4989911;28;20125;-34
2023/03/09 06:36:54;;;;;;;26.75;15.60;;;1.10;99.90;;;;;;5006537;28;20041;-35
2023/03/09 06:39:19;;;;;;;27.55;14.98;;;1.10;99.90;;;;;;5004136;28;20100;-35
2023/03/09 06:41:45;;;;;;;25.45;14.95;;;1.10;99.90;;;;;;5005285;28;20041;-35
2023/03/09 06:44:11;;;;;;;28.58;15.55;;;1.10;99.90;;;;;;5005939;28;20578;-34
2023/03/09 06:46:37;;;;;;;25.48;14.70;;;1.20;99.90;;;;;;5006086;28;20129;-35
2023/03/09 06:49:03;;;;;;;28.73;15.38;;;1.20;99.90;;;;;;5004154;28;20029;-34
2023/03/09 06:51:28;;;;;;;25.60;14.52;;;1.20;99.90;;;;;;5008443;28;20034;-34
2023/03/09 06:54:00;;;;;;;27.70;15.55;;;1.30;99.90;;;;;;5008512;28;20036;-35
2023/03/09 06:56:26;;;;;;;26.63;15.52;;;1.20;99.90;;;;;;4993561;28;20129;-36
2023/03/09 06:58:54;;;;;;;26.23;15.50;;;1.20;99.90;;;;;;5007908;28;20438;-35
2023/03/09 07:01:20;;;;;;;28.90;16.10;;;1.20;99.90;;;;;;5009320;28;20494;-36
2023/03/09 07:03:46;;;;;;;24.73;14.50;;;1.30;99.90;;;;;;5007337;28;20052;-35
2023/03/09 07:06:15;;;;;;;25.17;15.60;;;1.30;99.90;;;;;;5006436;28;20038;-34
2023/03/09 07:08:48;;;;;;;25.88;15.40;;;1.30;99.90;;;;;;5008641;28;20486;-34
2023/03/09 07:11:17;;;;;;;30.83;16.17;;;1.40;99.90;;;;;;5009655;28;20482;-34
2023/03/09 07:17:13;;;;;;;28.65;15.27;;;1.50;99.90;;;;;;4967795;28;20047;-35
2023/03/09 07:19:58;;;;;;;25.83;14.98;;;1.60;99.90;;;;;;4968727;28;20179;-34
2023/03/09 07:22:42;;;;;;;25.13;14.85;;;1.60;99.90;;;;;;4968887;28;20432;-35
2023/03/09 07:25:08;;;;;;;28.85;14.43;;;1.60;99.90;;;;;;4955806;28;20043;-34
2023/03/09 07:27:34;;;;;;;25.08;14.65;;;1.60;99.90;;;;;;4984620;28;20042;-34
2023/03/09 07:30:00;;;;;;;26.13;15.30;;;1.70;99.90;;;;;;4987876;28;21490;-34
2023/03/09 07:32:25;;;;;;;24.60;15.27;;;1.70;99.90;;;;;;5001482;28;20092;-34
2023/03/09 07:34:51;;;;;;;24.75;15.07;;;1.80;99.90;;;;;;4999696;28;20033;-34
2023/03/09 07:37:17;;;;;;;25.38;15.30;;;1.90;99.90;;;;;;4999496;28;20034;-35
2023/03/09 07:39:43;;;;;;;26.70;15.18;;;1.80;99.90;;;;;;4997837;28;20116;-34
2023/03/09 07:42:08;;;;;;;23.05;15.13;;;1.90;99.90;;;;;;4997334;28;20088;-35
2023/03/09 07:44:34;;;;;;;24.45;15.73;;;1.90;99.90;;;;;;4987777;28;20042;-34
2023/03/09 07:47:00;;;;;;;26.48;15.38;;;1.90;99.90;;;;;;4999075;28;20034;-34
2023/03/09 07:49:25;;;;;;;23.23;14.18;;;2.00;99.90;;;;;;4997471;28;20491;-35
2023/03/09 07:51:51;;;;;;;24.30;15.02;;;2.10;99.90;;;;;;5005880;28;20042;-35
2023/03/09 07:54:17;;;;;;;28.23;15.73;;;2.10;99.90;;;;;;4992590;28;20473;-34
2023/03/09 07:56:47;;;;;;;25.52;15.60;;;2.20;99.90;;;;;;4997477;28;20029;-34
2023/03/09 07:59:15;;;;;;;23.08;15.15;;;2.30;99.90;;;;;;4999571;28;20434;-34
2023/03/09 08:01:41;;;;;;;24.08;15.75;;;2.30;99.90;;;;;;5001366;28;20372;-35
2023/03/09 08:04:07;;;;;;;24.00;14.82;;;2.40;99.90;;;;;;5000350;28;20080;-35
2023/03/09 08:06:33;;;;;;;24.67;15.75;;;2.30;99.90;;;;;;4995888;28;20088;-34
2023/03/09 08:09:02;;;;;;;25.13;14.57;;;2.30;99.90;;;;;;4999260;28;20411;-35
2023/03/09 08:11:31;;;;;;;22.13;14.50;;;2.30;99.90;;;;;;5013087;28;20038;-34
2023/03/09 08:13:59;;;;;;;26.48;15.27;;;2.30;99.90;;;;;;5004526;28;20056;-35
2023/03/09 08:16:25;;;;;;;25.25;15.23;;;2.40;99.90;;;;;;5012389;28;20041;-35
2023/03/09 08:18:51;;;;;;;23.40;15.07;;;2.40;99.90;;;;;;5013597;28;20046;-35
2023/03/09 08:21:19;;;;;;;25.90;15.93;;;2.40;99.90;;;;;;5012873;28;20449;-35
2023/03/09 08:23:45;;;;;;;25.02;15.90;;;2.40;99.90;;;;;;5012883;28;20033;-35
2023/03/09 08:26:13;;;;;;;23.98;15.85;;;2.50;99.90;;;;;;5013985;28;20049;-35
2023/03/09 08:28:40;;;;;;;23.98;15.30;;;2.50;99.90;;;;;;4996390;28;20400;-34
2023/03/09 08:31:08;;;;;;;27.02;15.70;;;2.50;99.90;;;;;;4996851;28;20042;-35
2023/03/09 08:33:34;;;;;;;24.02;14.32;;;2.60;99.90;;;;;;4990804;28;20376;-35
2023/03/09 08:36:08;;;;;;;23.58;14.77;;;2.50;99.90;;;;;;4997241;28;20067;-35
2023/03/09 08:38:34;;;;;;;23.90;14.82;;;2.50;99.90;;;;;;4998281;28;20455;-35
2023/03/09 08:41:00;;;;;;;24.67;15.18;;;2.50;99.90;;;;;;4999169;28;20042;-34
2023/03/09 08:43:25;;;;;;;25.90;15.57;;;2.60;99.90;;;;;;4996477;28;20046;-35
2023/03/09 08:45:52;;;;;;;23.75;15.20;;;2.60;99.90;;;;;;4996904;28;20040;-35
2023/03/09 08:48:18;;;;;;;23.58;15.20;;;2.70;99.90;;;;;;4997646;28;20061;-34
2023/03/09 08:50:43;;;;;;;25.98;15.93;;;2.70;99.90;;;;;;5001766;28;20139;-35
2023/03/09 08:53:09;;;;;;;25.45;15.68;;;2.70;99.90;;;;;;4985292;28;20030;-36
2023/03/09 08:55:35;;;;;;;24.67;15.85;;;2.70;99.90;;;;;;4996549;28;20034;-35
2023/03/09 08:58:01;;;;;;;22.63;14.10;;;2.80;99.90;;;;;;4997233;28;20093;-35
2023/03/09 09:00:27;;;;;;;22.20;14.57;;;2.80;99.90;;;;;;5002462;28;20112;-34
2023/03/09 09:02:52;;;;;;;23.05;14.50;;;2.80;99.90;;;;;;4985548;28;20038;-34
2023/03/09 09:05:18;;;;;;;24.05;15.20;;;2.80;99.90;;;;;;4996153;28;20116;-34
2023/03/09 09:07:44;;;;;;;24.88;15.48;;;2.80;99.90;;;;;;4999952;28;20034;-34
2023/03/09 09:10:10;;;;;;;23.88;15.68;;;2.90;99.90;;;;;;4995874;28;20034;-34
2023/03/09 09:12:37;;;;;;;23.60;14.60;;;3.10;99.90;;;;;;5011037;28;20040;-35
2023/03/09 09:15:07;;;;;;;22.17;15.02;;;3.10;99.90;;;;;;4995658;28;20045;-34
2023/03/09 09:20:00;;;;;;;26.00;16.52;;;3.30;99.90;;;;;;4984838;28;20042;-87
2023/03/09 09:22:26;;;;;;;22.58;15.48;;;3.30;99.90;;;;;;4952196;28;20046;-87
2023/03/09 09:24:51;;;;;;;23.30;16.25;;;3.40;99.90;;;;;;4966847;28;20493;-87
2023/03/09 09:27:17;;;;;;;21.90;14.80;;;3.40;99.90;;;;;;4977247;28;20126;-87
2023/03/09 09:29:43;;;;;;;21.42;14.88;;;3.50;99.90;;;;;;4979068;28;20042;-87
2023/03/09 09:32:09;;;;;;;22.42;15.00;;;3.60;99.90;;;;;;4955709;28;20146;-86
2023/03/09 09:34:35;;;;;;;26.38;15.60;;;3.60;99.90;;;;;;4961717;28;20042;-86
2023/03/09 09:37:03;;;;;;;23.73;15.32;;;3.60;99.90;;;;;;4963590;28;20465;-87
2023/03/09 09:39:29;;;;;;;23.88;15.15;;;3.70;99.90;;;;;;4960546;28;20419;-87
2023/03/09 09:41:59;;;;;;;23.58;15.40;;;3.70;99.90;;;;;;4978932;28;20044;-87
2023/03/09 09:44:29;;;;;;;22.60;14.48;;;3.60;99.90;;;;;;4968156;28;20453;-87
2023/03/09 09:46:58;;;;;;;20.58;14.77;;;3.70;99.90;;;;;;4980324;28;20812;-87
2023/03/09 09:49:28;;;;;;;23.33;14.82;;;3.60;99.90;;;;;;5009097;28;20042;-87
2023/03/09 09:52:14;;;;;;;22.73;14.90;;;3.70;99.90;;;;;;4992793;28;20041;-87
2023/03/09 09:54:57;;;;;;;21.23;14.73;;;3.70;99.90;;;;;;4988053;28;20098;-87
2023/03/09 09:57:51;;;;;;;24.23;15.45;;;3.70;99.90;;;;;;4990839;28;20520;-86
2023/03/09 10:00:32;;;;;;;22.88;14.73;;;3.70;99.90;;;;;;4959035;28;20070;-87
2023/03/09 10:02:58;;;;;;;24.33;15.25;;;3.70;99.90;;;;;;4960322;28;20050;-86
2023/03/09 10:05:55;;;;;;;24.05;15.40;;;3.70;99.90;;;;;;4980010;28;20054;-87
2023/03/09 10:08:29;;;;;;;24.90;16.05;;;3.70;99.90;;;;;;4964807;28;20038;-87
2023/03/09 10:11:11;;;;;;;25.35;15.85;;;3.70;99.90;;;;;;4980661;28;20115;-87
2023/03/09 10:13:50;;;;;;;24.83;15.85;;;3.70;99.90;;;;;;4974401;28;20041;-87
2023/03/09 10:16:22;;;;;;;22.15;14.27;;;3.70;99.90;;;;;;4980841;28;20067;-87
2023/03/09 10:18:53;;;;;;;22.90;15.25;;;3.60;99.90;;;;;;4978905;28;20030;-86
2023/03/09 10:21:41;;;;;;;21.98;15.27;;;3.60;99.90;;;;;;4998013;28;20049;-86
2023/03/09 10:24:25;;;;;;;23.83;15.35;;;3.60;99.90;;;;;;4962876;28;20052;-87
2023/03/09 10:26:56;;;;;;;;;;;3.60;99.90;;;;;;4972129;28;20393;-87
2023/03/09 10:29:48;;;;;;;22.65;14.93;;;3.70;99.90;;;;;;4987745;28;19961;-87
2023/03/09 10:32:59;;;;;;;24.20;15.00;;;3.70;99.90;;;;;;4959591;28;20486;-87
2023/03/09 10:35:29;;;;;;;21.90;14.18;;;3.70;99.90;;;;;;4917306;29;20051;-87
2023/03/09 10:37:55;;;;;;;22.70;14.85;;;3.70;99.90;;;;;;4908281;29;20050;-86
2023/03/09 10:40:29;;;;;;;21.58;14.68;;;3.70;99.90;;;;;;4953853;28;20050;-87
2023/03/09 10:42:57;;;;;;;21.55;14.63;;;3.80;99.90;;;;;;4978588;28;20109;-86
2023/03/09 10:45:25;;;;;;;22.23;14.38;;;3.80;99.90;;;;;;4966520;28;20045;-86
2023/03/09 10:47:51;;;;;;;23.90;15.27;;;3.80;99.90;;;;;;4960729;28;20121;-87
2023/03/09 10:50:17;;;;;;;23.52;15.88;;;3.80;99.90;;;;;;4961174;28;20458;-87
2023/03/09 10:52:43;;;;;;;23.52;15.80;;;3.80;99.90;;;;;;5007801;28;20034;-87
2023/03/09 10:55:45;;;;;;;26.35;15.65;;;3.90;99.90;;;;;;4983725;28;20041;-87
2023/03/09 10:58:15;;;;;;;25.08;15.90;;;4.00;99.90;;;;;;4970044;28;20038;-87
2023/03/09 11:00:54;;;;;;;22.13;15.43;;;4.00;99.90;;;;;;4967760;28;20117;-87
2023/03/09 11:03:23;;;;;;;24.10;16.40;;;4.00;99.90;;;;;;4991208;28;20500;-87
2023/03/09 11:05:48;;;;;;;21.85;14.88;;;4.00;99.90;;;;;;4958596;28;20034;-87
2023/03/09 11:08:24;;;;;;;23.90;15.65;;;4.10;99.90;;;;;;4990474;28;20125;-87
2023/03/09 11:11:01;;;;;;;20.90;14.63;;;4.00;99.90;;;;;;4953818;28;20034;-87
2023/03/09 11:13:27;;;;;;;23.30;16.02;;;4.10;99.90;;;;;;4992181;28;20034;-87
2023/03/09 11:16:23;;;;;;;23.52;15.55;;;4.10;99.90;;;;;;4974356;28;20511;-87
2023/03/09 11:19:02;;;;;;;22.85;15.23;;;4.10;99.90;;;;;;4954277;28;20117;-87
2023/03/09 11:21:28;;;;;;;23.17;13.90;;;4.10;99.90;;;;;;5007740;28;20046;-86
2023/03/09 11:23:54;;;;;;;22.85;15.98;;;4.10;99.90;;;;;;4975083;28;20667;-87
2023/03/09 11:26:32;;;;;;;25.15;16.10;;;4.10;99.90;;;;;;4967155;28;20464;-86
2023/03/09 11:29:20;;;;;;;22.05;14.80;;;4.10;99.90;;;;;;4962417;28;20046;-87
2023/03/09 11:31:46;;;;;;;22.50;14.88;;;4.00;99.90;;;;;;4952555;28;20042;-87
2023/03/09 11:34:33;;;;;;;23.90;16.05;;;4.00;99.90;;;;;;4990689;28;20037;-86
2023/03/09 11:37:11;;;;;;;23.42;16.42;;;4.00;99.90;;;;;;4962723;28;20485;-87
2023/03/09 11:39:56;;;;;;;23.23;15.75;;;4.00;99.90;;;;;;4986058;28;20040;-87
2023/03/09 11:42:38;;;;;;;24.35;15.90;;;4.10;99.90;;;;;;4982747;28;20053;-86
2023/03/09 11:45:06;;;;;;;23.92;15.38;;;4.10;99.90;;;;;;4975385;28;20043;-86
2023/03/09 11:47:42;;;;;;;23.92;15.23;;;4.10;99.90;;;;;;4966578;28;20038;-86
2023/03/09 11:50:21;;;;;;;22.10;15.13;;;4.10;99.90;;;;;;4966545;28;20073;-86
2023/03/09 11:52:56;;;;;;;24.95;16.65;;;4.10;99.90;;;;;;4961240;28;20052;-87
2023/03/09 11:55:35;;;;;;;23.23;15.20;;;4.20;99.90;;;;;;4978886;28;20043;-87
2023/03/09 11:58:05;;;;;;;23.77;16.02;;;4.20;99.90;;;;;;4961904;28;20077;-87
2023/03/09 12:00:33;;;;;;;23.52;15.18;;;4.10;99.90;;;;;;4986211;28;20048;-86
2023/03/09 12:03:15;;;;;;;24.08;15.52;;;4.10;99.90;;;;;;4986771;28;20034;-87
2023/03/09 12:06:03;;;;;;;25.30;15.70;;;4.10;99.90;;;;;;4976238;28;20046;-86
2023/03/09 12:08:36;;;;;;;24.30;15.63;;;4.20;99.90;;;;;;4974322;28;20046;-87
2023/03/09 12:11:19;;;;;;;23.73;14.70;;;4.20;99.90;;;;;;5009108;28;20072;-87
2023/03/09 12:14:20;;;;;;;25.42;16.08;;;4.20;99.90;;;;;;4957220;28;20045;-87
2023/03/09 12:16:48;;;;;;;21.23;13.88;;;4.10;99.90;;;;;;4971814;28;20042;-87
2023/03/09 12:19:17;;;;;;;23.90;15.70;;;4.20;99.90;;;;;;4975633;28;20056;-87
2023/03/09 12:21:49;;;;;;;22.90;15.27;;;4.20;99.90;;;;;;4962116;28;20123;-87
2023/03/09 12:24:23;;;;;;;22.70;15.55;;;4.40;99.90;;;;;;4958922;28;20062;-87
2023/03/09 12:27:14;;;;;;;23.55;14.80;;;4.40;99.90;;;;;;4964755;28;20041;-87
2023/03/09 12:29:47;;;;;;;26.60;16.42;;;4.40;99.90;;;;;;4977590;28;20049;-86
2023/03/09 12:32:31;;;;;;;21.25;14.07;;;4.30;99.90;;;;;;4977700;28;20489;-86
2023/03/09 12:35:00;;;;;;;21.27;14.38;;;4.30;99.90;;;;;;4961805;28;20030;-87
2023/03/09 12:37:35;;;;;;;20.90;14.13;;;4.30;99.90;;;;;;4977794;28;20065;-87
2023/03/09 12:40:26;;;;;;;21.52;14.00;;;4.30;99.90;;;;;;4989982;28;20067;-87
2023/03/09 12:43:15;;;;;;;23.00;15.05;;;4.40;99.90;;;;;;4972164;28;20031;-86
2023/03/09 12:45:42;;;;;;;24.55;15.45;;;4.40;99.90;;;;;;4954424;28;20038;-86
2023/03/09 12:48:07;;;;;;;24.50;15.07;;;4.40;99.90;;;;;;4978896;28;20520;-86
2023/03/09 12:50:42;;;;;;;22.05;15.32;;;4.30;99.90;;;;;;5010111;28;20074;-86
2023/03/09 12:53:10;;;;;;;23.05;14.95;;;4.30;99.90;;;;;;4961220;28;20089;-86
2023/03/09 12:55:36;;;;;;;22.98;14.98;;;4.30;99.90;;;;;;4977563;28;20520;-86
2023/03/09 12:58:24;;;;;;;23.50;14.52;;;4.30;99.90;;;;;;4980030;28;20049;-86
2023/03/09 13:00:58;;;;;;;24.00;15.32;;;4.40;99.90;;;;;;4955771;28;20100;-86